Time;durP1;ratioP1;P1;durP2;ratioP2;P2;SDS_P1;SDS_P2;PMS_P1;PMS_P2;Temp;Humidity;BMP_temperature;BMP_pressure;BME280_temperature;BME280_humidity;BME280_pressure;Samples;Min_cycle;Max_cycle;Signal;HPM_P1;HPM_P2
2021/04/22 11:01:39;;;;;;;5.00;4.00;;;;;;;10.85;64.86;98157.91;1788718;77;21017;-72
2021/04/22 11:04:10;;;;;;;3.55;3.25;;;;;;;10.88;63.97;98158.63;1790635;78;21459;-71
2021/04/22 11:06:40;;;;;;;3.08;2.77;;;;;;;10.91;63.76;98153.03;1783202;78;21382;-80
2021/04/22 11:12:01;;;;;;;4.33;3.45;;;;;;;10.91;63.62;98140.48;1681962;83;21625;-70
2021/04/22 11:14:45;;;;;;;3.22;2.95;;;;;;;10.97;64.81;98133.77;1649585;83;21104;-77
2021/04/22 11:17:17;;;;;;;3.00;2.62;;;;;;;11.09;66.03;98126.13;1641049;86;21005;-65
2021/04/22 11:19:49;;;;;;;3.40;3.10;;;;;;;11.26;65.16;98117.25;1660636;83;21485;-66
2021/04/22 11:22:22;;;;;;;3.17;2.87;;;;;;;11.44;64.64;98117.18;1701580;82;21132;-67
2021/04/22 11:24:58;;;;;;;4.00;3.50;;;;;;;11.62;64.13;98117.60;1705004;82;21100;-63
2021/04/22 11:27:27;;;;;;;3.27;2.90;;;;;;;11.81;64.15;98110.28;1691338;82;21127;-67
2021/04/22 11:29:59;;;;;;;3.05;2.75;;;;;;;12.02;62.39;98104.20;1703746;82;21137;-68
2021/04/22 11:32:54;;;;;;;4.40;3.08;;;;;;;12.19;60.60;98093.43;1692223;81;21206;-71
2021/04/22 11:35:26;;;;;;;2.70;2.50;;;;;;;12.36;61.54;98098.30;1685027;82;21601;-71
2021/04/22 11:38:06;;;;;;;3.02;2.80;;;;;;;12.53;60.68;98099.59;1675760;82;21076;-69
2021/04/22 11:40:40;;;;;;;3.43;2.53;;;;;;;12.68;61.60;98103.37;1670690;83;21637;-68
2021/04/22 11:43:26;;;;;;;3.92;2.50;;;;;;;12.79;58.98;98096.59;1692580;82;20967;-72
2021/04/22 11:45:58;;;;;;;3.15;2.85;;;;;;;12.91;60.66;98098.27;1642296;84;21851;-76
2021/04/22 11:48:40;;;;;;;3.98;2.75;;;;;;;13.04;59.74;98105.30;1632033;85;21162;-67
2021/04/22 11:51:10;;;;;;;2.87;2.52;;;;;;;13.15;59.21;98107.97;1641062;86;20981;-65
2021/04/22 11:53:42;;;;;;;4.10;2.80;;;;;;;13.26;58.50;98097.13;1637675;85;21304;-66
2021/04/22 11:56:12;;;;;;;3.12;2.33;;;;;;;13.33;57.67;98104.22;1636611;84;21164;-66
2021/04/22 11:58:40;;;;;;;3.17;2.85;;;;;;;13.44;58.59;98098.75;1636271;85;21405;-65
2021/04/22 12:01:09;;;;;;;4.45;2.83;;;;;;;13.52;58.99;98092.70;1642498;84;20989;-64
2021/04/22 12:03:43;;;;;;;3.62;2.55;;;;;;;13.60;58.96;98095.58;1628480;86;21120;-68
2021/04/22 12:06:16;;;;;;;2.72;2.52;;;;;;;13.68;56.41;98090.88;1683795;83;21120;-65
2021/04/22 12:08:50;;;;;;;2.83;2.63;;;;;;;13.75;56.10;98089.36;1668038;84;21156;-66
2021/04/22 12:11:20;;;;;;;3.58;3.17;;;;;;;13.79;54.13;98092.64;1636603;85;22133;-66
2021/04/22 12:13:49;;;;;;;2.72;2.37;;;;;;;13.80;52.64;98091.66;1632425;86;21115;-67
2021/04/22 12:16:18;;;;;;;4.42;4.03;;;;;;;13.79;51.90;98085.89;1642329;86;21526;-66
2021/04/22 12:18:46;;;;;;;3.60;2.87;;;;;;;13.81;52.19;98089.30;1713517;82;21120;-65
2021/04/22 12:21:18;;;;;;;3.50;3.20;;;;;;;13.80;52.66;98084.91;1698263;81;21000;-65
2021/04/22 12:23:56;;;;;;;3.55;2.67;;;;;;;13.79;52.32;98077.80;1680787;82;21399;-65
2021/04/22 12:26:30;;;;;;;3.27;2.92;;;;;;;13.81;52.00;98070.41;1686471;83;21024;-65
2021/04/22 12:29:04;;;;;;;3.02;2.72;;;;;;;13.82;52.04;98070.78;1698705;82;21479;-66
2021/04/22 12:31:39;;;;;;;3.58;2.70;;;;;;;13.83;51.96;98072.50;1706224;83;21044;-65
2021/04/22 12:34:13;;;;;;;3.72;2.92;;;;;;;13.87;53.39;98066.70;1690757;81;20951;-66
2021/04/22 12:37:10;;;;;;;2.87;2.65;;;;;;;13.93;53.21;98063.93;1689108;83;22358;-67
2021/04/22 12:39:48;;;;;;;4.60;2.37;;;;;;;13.97;52.00;98092.38;1702106;81;21026;-65
2021/04/22 12:42:28;;;;;;;3.47;2.20;;;;;;;13.94;52.51;98095.82;1697208;83;20948;-65
2021/04/22 12:45:01;;;;;;;3.00;2.30;;;;;;;13.79;51.33;98098.04;1700101;82;20977;-65
2021/04/22 12:47:37;;;;;;;4.60;1.82;;;;;;;13.51;51.67;98122.01;1688934;82;20963;-65
2021/04/22 12:50:10;;;;;;;3.17;2.05;;;;;;;13.22;52.58;98119.93;1681750;82;21385;-65
2021/04/22 12:52:38;;;;;;;2.87;2.10;;;;;;;13.10;53.92;98115.09;1703000;83;20983;-65
2021/04/22 12:55:12;;;;;;;2.52;2.33;;;;;;;12.88;53.89;98110.66;1710405;83;21101;-64
2021/04/22 12:57:40;;;;;;;;;;;;;;;12.72;54.55;98124.52;1695177;82;21079;-65
2021/04/22 13:00:11;;;;;;;4.65;3.17;;;;;;;12.60;54.96;98119.66;1696640;82;20130;-66
2021/04/22 13:02:38;;;;;;;2.20;2.08;;;;;;;12.46;55.12;98129.38;1702800;81;21365;-65
2021/04/22 13:05:15;;;;;;;4.50;2.85;;;;;;;12.38;55.53;98123.77;1686687;82;21101;-65
2021/04/22 13:07:44;;;;;;;4.25;3.42;;;;;;;12.32;56.28;98120.22;1700057;83;21074;-65
2021/04/22 13:10:15;;;;;;;3.25;2.95;;;;;;;12.27;56.68;98121.43;1703255;81;21063;-65
2021/04/22 13:12:45;;;;;;;4.45;3.62;;;;;;;12.23;56.30;98123.99;1701934;84;20924;-65
2021/04/22 13:15:17;;;;;;;2.95;2.67;;;;;;;12.20;56.50;98130.12;1705654;83;21304;-64
2021/04/22 13:17:44;;;;;;;4.30;3.45;;;;;;;12.15;56.72;98128.30;1710382;83;21121;-65
2021/04/22 13:20:23;;;;;;;3.45;3.15;;;;;;;12.13;56.47;98120.34;1700600;83;20952;-64
2021/04/22 13:22:53;;;;;;;4.62;3.85;;;;;;;12.05;56.24;98122.80;1706074;83;20933;-64
2021/04/22 13:25:29;;;;;;;3.52;3.22;;;;;;;11.92;56.39;98129.16;1704849;82;20924;-65
2021/04/22 13:28:09;;;;;;;4.28;3.87;;;;;;;11.93;56.58;98129.53;1704925;82;21144;-65
2021/04/22 13:30:37;;;;;;;5.97;4.35;;;;;;;11.82;57.27;98136.20;1702715;81;21008;-65
2021/04/22 13:33:08;;;;;;;5.90;5.40;;;;;;;11.75;58.54;98140.36;1704068;82;20940;-64
2021/04/22 13:35:36;;;;;;;7.75;5.45;;;;;;;11.63;59.49;98127.86;1710305;82;21676;-65
2021/04/22 13:38:20;;;;;;;4.50;4.10;;;;;;;11.52;60.62;98123.31;1697507;83;21020;-64
2021/04/22 13:40:49;;;;;;;5.92;4.50;;;;;;;11.43;62.51;98137.00;1699555;83;22100;-66
2021/04/22 13:43:18;;;;;;;6.40;5.78;;;;;;;11.20;64.75;98140.95;1700660;84;21564;-65
2021/04/22 13:45:47;;;;;;;6.28;5.67;;;;;;;11.09;65.27;98146.28;1675703;83;20964;-65
2021/04/22 13:48:19;;;;;;;6.22;4.55;;;;;;;10.99;66.47;98147.97;1665688;83;21068;-64
2021/04/22 13:50:48;;;;;;;6.22;5.67;;;;;;;10.82;68.47;98151.41;1653714;84;21064;-65
2021/04/22 13:53:19;;;;;;;6.40;5.90;;;;;;;10.69;69.57;98161.83;1651938;84;22801;-66
2021/04/22 13:55:54;;;;;;;9.33;7.05;;;;;;;10.49;71.03;98173.06;1651490;85;20964;-64
2021/04/22 13:58:37;;;;;;;5.35;4.85;;;;;;;10.35;71.61;98178.58;1676255;85;21107;-65
2021/04/22 14:01:23;;;;;;;6.37;5.62;;;;;;;10.25;72.67;98192.27;1842343;78;22686;-66
2021/04/22 14:03:55;;;;;;;6.60;6.08;;;;;;;10.10;73.11;98203.09;1817677;79;20904;-65
2021/04/22 14:06:39;;;;;;;8.45;7.65;;;;;;;9.99;73.48;98213.73;1817649;79;21430;-65
2021/04/22 14:09:10;;;;;;;9.40;8.60;;;;;;;9.87;73.59;98215.92;1817674;79;20969;-65
2021/04/22 14:11:46;;;;;;;8.55;7.85;;;;;;;9.76;73.83;98228.27;1817579;79;20932;-66
2021/04/22 14:14:17;;;;;;;10.80;9.80;;;;;;;9.65;73.62;98232.18;1817589;79;20971;-64
2021/04/22 14:16:49;;;;;;;10.40;9.40;;;;;;;9.58;74.25;98227.69;1817603;79;21003;-65
2021/04/22 14:19:23;;;;;;;10.03;9.13;;;;;;;9.48;73.92;98228.45;1817687;78;22732;-66
2021/04/22 14:21:51;;;;;;;8.98;8.20;;;;;;;9.36;74.25;98230.11;1817595;78;20940;-66
2021/04/22 14:24:19;;;;;;;11.63;10.63;;;;;;;9.30;74.83;98242.13;1817720;78;21543;-65
2021/04/22 14:26:49;;;;;;;12.18;11.08;;;;;;;9.24;75.17;98242.53;1817554;79;20980;-65
2021/04/22 14:29:21;;;;;;;13.48;12.18;;;;;;;9.19;75.95;98248.66;1817640;79;20983;-66
2021/04/22 14:31:51;;;;;;;12.45;11.22;;;;;;;9.13;75.85;98261.11;1817557;79;21307;-65
2021/04/22 14:34:19;;;;;;;13.08;11.85;;;;;;;9.06;76.57;98269.19;1817633;79;20983;-65
2021/04/22 14:36:47;;;;;;;10.23;9.20;;;;;;;8.99;76.14;98278.96;1817565;78;21413;-65
2021/04/22 14:39:15;;;;;;;9.63;8.73;;;;;;;8.91;74.37;98278.61;1817521;78;21014;-65
2021/04/22 14:41:43;;;;;;;10.15;9.00;;;;;;;8.86;73.12;98286.05;1817564;79;20896;-65
2021/04/22 14:44:11;;;;;;;10.03;9.08;;;;;;;8.80;73.14;98286.48;1817658;79;21375;-66
2021/04/22 14:46:40;;;;;;;8.58;7.78;;;;;;;8.73;72.80;98287.81;1817529;79;20916;-65
2021/04/22 14:49:09;;;;;;;11.68;10.13;;;;;;;8.65;73.06;98289.14;1817594;78;20987;-65
2021/04/22 14:51:38;;;;;;;9.70;8.73;;;;;;;8.60;73.72;98296.62;1817525;78;21011;-66
2021/04/22 14:54:07;;;;;;;12.05;10.90;;;;;;;8.53;74.24;98311.36;1817614;79;20954;-66
2021/04/22 14:56:35;;;;;;;11.53;9.43;;;;;;;8.42;75.00;98312.45;1817650;79;21325;-66
2021/04/22 14:59:04;;;;;;;10.08;9.23;;;;;;;8.31;74.92;98322.02;1817487;79;21452;-66
2021/04/22 15:01:33;;;;;;;10.72;9.73;;;;;;;8.22;75.57;98329.27;1806383;79;20877;-66
2021/04/22 15:04:01;;;;;;;11.12;10.10;;;;;;;8.12;75.85;98342.83;1806386;79;20889;-66
2021/04/22 15:06:31;;;;;;;11.30;10.10;;;;;;;8.08;76.42;98347.97;1806443;79;20984;-65
2021/04/22 15:08:59;;;;;;;14.58;11.80;;;;;;;8.01;76.72;98346.59;1806607;79;22336;-66
2021/04/22 15:11:29;;;;;;;12.00;10.80;;;;;;;7.95;77.19;98346.02;1806057;79;21015;-66
2021/04/22 15:13:57;;;;;;;10.25;8.73;;;;;;;7.91;77.47;98353.83;1805848;79;20925;-66
2021/04/22 15:16:26;;;;;;;8.60;7.60;;;;;;;7.85;77.41;98363.58;1805795;79;20972;-65
2021/04/22 15:18:55;;;;;;;7.22;6.62;;;;;;;7.73;76.26;98350.44;1805857;79;20901;-66
2021/04/22 15:21:28;;;;;;;8.38;7.58;;;;;;;7.63;75.79;98363.97;1805901;79;20912;-65
2021/04/22 15:23:54;;;;;;;8.33;7.25;;;;;;;7.57;76.44;98361.66;1805713;79;20948;-65
2021/04/22 15:26:21;;;;;;;5.87;5.35;;;;;;;7.53;76.94;98367.63;1805858;79;20884;-65
2021/04/22 15:28:49;;;;;;;6.03;5.42;;;;;;;7.42;74.99;98364.71;1805827;79;20932;-65
2021/04/22 15:31:17;;;;;;;5.17;4.10;;;;;;;7.32;74.03;98362.20;1805884;79;20937;-66
2021/04/22 15:33:48;;;;;;;4.70;3.98;;;;;;;7.21;74.80;98370.33;1805796;79;20980;-64
2021/04/22 15:36:17;;;;;;;4.25;3.77;;;;;;;7.15;75.83;98384.50;1805760;79;21042;-66
2021/04/22 15:38:44;;;;;;;4.65;4.10;;;;;;;7.07;75.99;98376.91;1805834;79;20937;-66
2021/04/22 15:41:14;;;;;;;4.97;4.50;;;;;;;6.98;76.22;98385.43;1805773;79;20925;-65
2021/04/22 15:43:42;;;;;;;4.25;3.45;;;;;;;6.93;77.25;98388.84;1805934;79;20916;-66
2021/04/22 15:46:12;;;;;;;5.80;3.62;;;;;;;6.90;77.63;98387.66;1805875;79;21411;-66
2021/04/22 15:48:41;;;;;;;2.72;2.52;;;;;;;6.89;77.32;98393.48;1805794;79;20996;-67
2021/04/22 15:51:10;;;;;;;3.85;3.52;;;;;;;6.85;77.25;98396.77;1805115;79;20944;-67
2021/04/22 15:53:39;;;;;;;6.05;3.08;;;;;;;6.80;77.39;98401.52;1805721;79;20968;-66
2021/04/22 15:56:06;;;;;;;3.95;2.85;;;;;;;6.73;77.14;98397.43;1805870;79;20984;-66
2021/04/22 15:58:34;;;;;;;3.42;3.12;;;;;;;6.69;76.93;98397.23;1805855;79;21330;-67
2021/04/22 16:01:01;;;;;;;4.33;3.27;;;;;;;6.66;76.17;98406.73;1811658;79;20928;-67
2021/04/22 16:03:30;;;;;;;4.05;3.62;;;;;;;6.62;76.19;98410.05;1814986;79;20977;-67
2021/04/22 16:05:59;;;;;;;3.33;2.92;;;;;;;6.59;76.13;98407.98;1814870;79;20936;-67
2021/04/22 16:08:27;;;;;;;3.40;3.10;;;;;;;6.58;75.98;98404.47;1815025;79;20992;-66
2021/04/22 16:10:56;;;;;;;2.90;2.70;;;;;;;6.57;76.36;98392.05;1814908;78;21067;-65
2021/04/22 16:13:25;;;;;;;5.50;5.00;;;;;;;6.56;76.14;98389.47;1814858;79;20940;-66
2021/04/22 16:15:56;;;;;;;2.90;2.45;;;;;;;6.54;76.31;98375.35;1814938;79;21326;-70
2021/04/22 16:18:25;;;;;;;3.17;2.92;;;;;;;6.53;76.07;98364.28;1814620;79;21461;-66
2021/04/22 16:20:55;;;;;;;2.83;2.62;;;;;;;6.51;75.98;98353.23;1783400;79;20960;-66
2021/04/22 16:23:26;;;;;;;3.58;3.00;;;;;;;6.54;76.06;98356.67;1814829;79;21351;-66
2021/04/22 16:25:54;;;;;;;4.58;3.00;;;;;;;6.54;75.87;98358.01;1814826;79;20940;-67
2021/04/22 16:28:21;;;;;;;3.10;2.47;;;;;;;6.56;75.52;98363.66;1814918;79;20908;-65
2021/04/22 16:30:49;;;;;;;3.10;2.70;;;;;;;6.56;75.23;98366.78;1814889;79;20983;-67
2021/04/22 16:33:16;;;;;;;3.70;3.40;;;;;;;6.57;75.17;98383.20;1814907;79;20979;-67
2021/04/22 16:35:44;;;;;;;3.17;2.87;;;;;;;6.56;75.37;98389.47;1814934;79;21319;-67
2021/04/22 16:38:14;;;;;;;2.62;2.40;;;;;;;6.57;75.60;98393.87;1814992;79;20924;-67
2021/04/22 16:40:42;;;;;;;3.37;3.08;;;;;;;6.56;75.71;98398.80;1814812;79;20905;-66
2021/04/22 16:43:09;;;;;;;4.33;3.60;;;;;;;6.54;75.57;98394.89;1814795;79;21011;-67
2021/04/22 16:45:38;;;;;;;4.83;4.28;;;;;;;6.52;76.17;98399.45;1814944;79;20991;-68
2021/04/22 16:48:07;;;;;;;4.78;4.37;;;;;;;6.50;76.57;98400.87;1814939;79;21196;-68
2021/04/22 16:50:37;;;;;;;5.33;4.72;;;;;;;6.49;76.42;98407.13;1783948;79;21023;-66
2021/04/22 16:53:06;;;;;;;5.80;4.00;;;;;;;6.50;76.87;98411.54;1814878;79;21011;-67
2021/04/22 16:55:34;;;;;;;7.95;5.00;;;;;;;6.50;76.82;98413.36;1814917;79;20912;-68
2021/04/22 16:58:02;;;;;;;7.50;4.83;;;;;;;6.49;76.08;98419.14;1814893;79;21348;-66
2021/04/22 17:00:31;;;;;;;7.70;4.15;;;;;;;6.50;76.13;98420.02;1819100;78;21371;-64
2021/04/22 17:02:59;;;;;;;6.42;3.85;;;;;;;6.53;75.70;98421.65;1797271;78;20983;-67
2021/04/22 17:05:29;;;;;;;6.97;4.47;;;;;;;6.55;75.70;98425.97;1828713;78;20964;-67
2021/04/22 17:07:58;;;;;;;7.55;5.10;;;;;;;6.57;75.58;98417.89;1828681;78;20978;-66
2021/04/22 17:10:30;;;;;;;8.83;4.97;;;;;;;6.60;75.84;98429.73;1828716;78;20971;-66
2021/04/22 17:12:58;;;;;;;8.95;5.28;;;;;;;6.61;75.87;98428.80;1828721;78;21185;-65
2021/04/22 17:15:26;;;;;;;6.00;4.35;;;;;;;6.61;75.49;98422.13;1828694;78;21217;-67
2021/04/22 17:17:55;;;;;;;5.10;4.42;;;;;;;6.62;75.16;98405.16;1828812;78;20907;-67
2021/04/22 17:20:23;;;;;;;6.17;4.95;;;;;;;6.64;75.22;98397.47;1828661;78;20900;-65
2021/04/22 17:22:51;;;;;;;6.45;4.50;;;;;;;6.66;75.10;98397.39;1828693;78;20911;-66
2021/04/22 17:25:18;;;;;;;4.97;4.03;;;;;;;6.68;75.12;98399.50;1828769;78;21357;-67
2021/04/22 17:27:52;;;;;;;6.40;5.25;;;;;;;6.72;75.12;98406.86;1828673;78;20940;-66
2021/04/22 17:30:21;;;;;;;4.55;3.60;;;;;;;6.73;74.75;98416.60;1828722;78;20965;-67
2021/04/22 17:32:51;;;;;;;3.52;3.22;;;;;;;6.73;73.50;98413.45;1828634;78;20983;-67
2021/04/22 17:35:25;;;;;;;4.50;4.10;;;;;;;6.74;73.35;98409.84;1828756;78;20903;-66
2021/04/22 17:37:55;;;;;;;5.62;4.42;;;;;;;6.74;73.17;98417.86;1828724;78;21362;-66
2021/04/22 17:40:25;;;;;;;6.72;4.75;;;;;;;6.74;73.60;98417.86;1828591;78;20892;-67
2021/04/22 17:42:52;;;;;;;5.00;4.45;;;;;;;6.74;73.79;98423.19;1828579;78;21321;-67
2021/04/22 17:45:20;;;;;;;7.10;5.47;;;;;;;6.73;73.65;98425.45;1828782;78;20911;-67
2021/04/22 17:47:48;;;;;;;6.97;5.45;;;;;;;6.73;73.30;98432.13;1828689;78;20991;-66
2021/04/22 17:50:16;;;;;;;5.53;4.33;;;;;;;6.73;73.07;98441.48;1828731;78;21376;-66
2021/04/22 17:52:47;;;;;;;7.50;4.80;;;;;;;6.74;72.36;98445.88;1828731;78;21045;-65
2021/04/22 17:55:15;;;;;;;5.87;5.30;;;;;;;6.73;72.11;98452.16;1828713;78;20888;-66
2021/04/22 17:57:42;;;;;;;6.20;5.40;;;;;;;6.72;72.46;98455.79;1828652;78;20916;-63
2021/04/22 18:00:19;;;;;;;7.00;6.17;;;;;;;6.71;72.13;98460.72;1827512;78;21345;-66
2021/04/22 18:02:47;;;;;;;7.53;5.95;;;;;;;6.69;72.11;98459.95;1805520;79;21470;-66
2021/04/22 18:05:22;;;;;;;9.38;6.62;;;;;;;6.67;72.19;98461.84;1805678;79;20999;-67
2021/04/22 18:07:50;;;;;;;;;;;;;;;6.66;72.29;98461.45;1808525;79;20995;-66
2021/04/22 18:10:20;;;;;;;14.43;8.55;;;;;;;6.63;72.31;98460.27;1805839;79;20129;-65
2021/04/22 18:12:47;;;;;;;11.95;9.00;;;;;;;6.61;72.39;98464.84;1805748;79;20972;-66
2021/04/22 18:15:18;;;;;;;10.20;8.95;;;;;;;6.58;72.00;98479.67;1805814;79;21400;-67
2021/04/22 18:17:47;;;;;;;10.10;8.85;;;;;;;6.56;71.94;98480.20;1805767;79;21807;-65
2021/04/22 18:20:15;;;;;;;9.05;8.08;;;;;;;6.51;71.94;98481.32;1805704;79;20905;-65
2021/04/22 18:22:42;;;;;;;9.95;8.40;;;;;;;6.48;72.00;98496.16;1805598;79;20901;-65
2021/04/22 18:25:13;;;;;;;8.50;7.65;;;;;;;6.44;71.98;98497.23;1805770;79;20905;-66
2021/04/22 18:27:40;;;;;;;9.55;5.92;;;;;;;6.42;72.34;98500.47;1805787;79;22305;-66
2021/04/22 18:30:11;;;;;;;8.20;6.10;;;;;;;6.40;71.93;98501.02;1805728;79;20995;-65
2021/04/22 18:32:40;;;;;;;9.05;5.60;;;;;;;6.38;72.29;98501.55;1805627;79;20980;-66
2021/04/22 18:35:09;;;;;;;6.90;5.65;;;;;;;6.36;72.44;98503.92;1805667;79;20988;-65
2021/04/22 18:37:39;;;;;;;7.60;5.90;;;;;;;6.33;72.91;98498.26;1805705;79;20984;-65
2021/04/22 18:40:11;;;;;;;6.47;5.45;;;;;;;6.31;73.12;98501.48;1805722;79;21192;-65
2021/04/22 18:42:39;;;;;;;6.47;4.17;;;;;;;6.30;73.26;98501.08;1805714;79;21417;-65
2021/04/22 18:45:08;;;;;;;4.70;3.87;;;;;;;6.27;72.86;98499.90;1805718;79;21043;-66
2021/04/22 18:47:37;;;;;;;5.00;4.50;;;;;;;6.24;72.87;98500.91;1805904;79;21429;-65
2021/04/22 18:50:05;;;;;;;5.53;4.15;;;;;;;6.23;72.94;98498.31;1805875;79;20905;-65
2021/04/22 18:52:33;;;;;;;8.03;5.60;;;;;;;6.22;73.10;98499.27;1805832;79;21360;-65
2021/04/22 18:55:01;;;;;;;6.92;5.03;;;;;;;6.19;73.22;98503.42;1805829;79;20921;-65
2021/04/22 18:57:29;;;;;;;7.33;5.65;;;;;;;6.17;73.20;98499.98;1805819;79;20969;-64
2021/04/22 18:59:56;;;;;;;6.10;5.50;;;;;;;6.14;73.44;98501.84;1805779;79;21036;-67
2021/04/22 19:02:24;;;;;;;6.55;5.47;;;;;;;6.12;73.44;98501.06;1805787;79;20909;-67
2021/04/22 19:04:51;;;;;;;6.20;5.10;;;;;;;6.10;73.30;98501.63;1805891;79;21378;-66
2021/04/22 19:07:18;;;;;;;5.60;5.05;;;;;;;6.07;73.72;98501.77;1805813;79;20944;-65
2021/04/22 19:09:49;;;;;;;6.95;4.30;;;;;;;6.06;73.71;98504.52;1805815;79;20980;-64
2021/04/22 19:12:19;;;;;;;4.50;4.10;;;;;;;6.03;73.28;98504.18;1805786;79;20996;-66
2021/04/22 19:14:50;;;;;;;5.22;4.33;;;;;;;6.00;73.06;98508.33;1805906;79;20928;-66
2021/04/22 19:17:18;;;;;;;4.50;3.70;;;;;;;5.96;73.10;98508.07;1805872;79;21370;-66
2021/04/22 19:19:47;;;;;;;5.00;4.03;;;;;;;5.90;73.18;98523.03;1805784;79;20972;-64
2021/04/22 19:22:15;;;;;;;4.75;3.77;;;;;;;5.84;73.52;98513.99;1805784;79;20913;-65
2021/04/22 19:24:43;;;;;;;4.60;3.80;;;;;;;5.82;73.64;98515.84;1805787;79;20944;-66
2021/04/22 19:27:11;;;;;;;5.20;4.05;;;;;;;5.77;73.90;98507.63;1805869;79;20932;-65
2021/04/22 19:29:40;;;;;;;4.10;3.70;;;;;;;5.74;74.00;98510.44;1805798;79;21513;-64
2021/04/22 19:32:08;;;;;;;5.70;5.10;;;;;;;5.71;74.13;98511.06;1805715;79;20996;-65
2021/04/22 19:34:36;;;;;;;5.05;4.35;;;;;;;5.67;74.11;98519.64;1805843;79;21051;-65
2021/04/22 19:37:04;;;;;;;5.33;4.35;;;;;;;5.63;74.18;98515.86;1805763;79;20873;-66
2021/04/22 19:39:32;;;;;;;6.97;4.15;;;;;;;5.59;74.15;98519.15;1805826;79;20928;-65
2021/04/22 19:42:00;;;;;;;4.33;3.92;;;;;;;5.57;74.25;98522.37;1805758;79;21437;-66
2021/04/22 19:44:31;;;;;;;5.03;4.50;;;;;;;5.52;74.23;98521.69;1805842;79;20945;-66
2021/04/22 19:46:59;;;;;;;4.78;4.25;;;;;;;5.47;74.29;98515.72;1805822;79;20928;-67
2021/04/22 19:49:27;;;;;;;7.33;5.05;;;;;;;5.42;74.69;98511.49;1805745;79;21000;-65
2021/04/22 19:51:54;;;;;;;5.08;4.47;;;;;;;5.38;74.65;98525.88;1805829;79;20932;-66
2021/04/22 19:54:22;;;;;;;5.78;5.08;;;;;;;5.33;74.64;98517.25;1805897;79;21254;-65
2021/04/22 19:56:50;;;;;;;5.83;5.22;;;;;;;5.28;74.63;98521.89;1805769;79;20944;-66
2021/04/22 19:59:19;;;;;;;8.13;5.25;;;;;;;5.24;74.75;98520.33;1805863;79;20968;-65
2021/04/22 20:01:48;;;;;;;7.72;5.58;;;;;;;5.21;74.89;98528.45;1805601;79;20944;-65
2021/04/22 20:04:16;;;;;;;7.67;6.33;;;;;;;5.13;75.06;98522.63;1805846;79;21000;-65
2021/04/22 20:06:49;;;;;;;6.72;6.05;;;;;;;5.10;75.09;98526.75;1805965;79;21186;-66
2021/04/22 20:09:18;;;;;;;10.25;6.92;;;;;;;5.05;75.20;98525.14;1805753;79;20948;-64
2021/04/22 20:11:48;;;;;;;11.15;7.08;;;;;;;5.00;75.37;98523.16;1805769;78;20996;-65
2021/04/22 20:14:17;;;;;;;7.45;5.80;;;;;;;4.97;75.43;98524.63;1805790;79;20996;-66
2021/04/22 20:16:44;;;;;;;8.50;5.92;;;;;;;4.94;75.55;98531.90;1805822;79;20917;-66
2021/04/22 20:19:14;;;;;;;6.50;5.62;;;;;;;4.88;75.68;98527.22;1805849;79;21394;-66
2021/04/22 20:21:42;;;;;;;8.23;6.42;;;;;;;4.86;75.83;98530.91;1805684;79;20936;-65
2021/04/22 20:24:09;;;;;;;8.40;6.40;;;;;;;4.82;75.88;98521.31;1805809;79;20976;-66
2021/04/22 20:26:40;;;;;;;9.50;5.92;;;;;;;4.77;76.02;98523.31;1805766;79;21548;-67
2021/04/22 20:29:09;;;;;;;5.97;5.37;;;;;;;4.72;76.08;98531.98;1805915;79;20932;-66
2021/04/22 20:31:38;;;;;;;5.92;5.03;;;;;;;4.66;76.10;98534.42;1805814;79;21364;-66
2021/04/22 20:34:08;;;;;;;6.00;5.40;;;;;;;4.64;76.26;98533.63;1805679;79;20992;-66
2021/04/22 20:36:35;;;;;;;7.08;5.50;;;;;;;4.60;76.42;98534.21;1805811;79;20940;-66
2021/04/22 20:39:08;;;;;;;6.35;5.47;;;;;;;4.58;76.46;98535.23;1805753;79;20878;-64
2021/04/22 20:41:36;;;;;;;6.12;5.12;;;;;;;4.54;76.65;98534.50;1805838;79;21039;-66
2021/04/22 20:44:06;;;;;;;7.92;6.08;;;;;;;4.52;76.70;98533.68;1805830;78;21386;-65
2021/04/22 20:46:33;;;;;;;8.25;6.17;;;;;;;4.47;76.86;98527.70;1805645;79;20958;-65
2021/04/22 20:49:01;;;;;;;7.25;6.17;;;;;;;4.44;76.87;98526.50;1805764;79;20917;-65
2021/04/22 20:51:30;;;;;;;7.62;5.37;;;;;;;4.43;76.92;98524.31;1805729;79;20999;-65
2021/04/22 20:53:57;;;;;;;7.85;6.03;;;;;;;4.41;77.20;98535.94;1805815;79;21000;-66
2021/04/22 20:56:26;;;;;;;7.33;5.95;;;;;;;4.36;77.29;98534.80;1805739;79;21363;-65
2021/04/22 20:58:53;;;;;;;7.83;6.25;;;;;;;4.33;77.41;98530.46;1805684;79;20921;-64
2021/04/22 21:01:21;;;;;;;8.85;7.05;;;;;;;4.31;77.44;98532.80;1806707;79;20913;-63
2021/04/22 21:03:53;;;;;;;8.60;6.50;;;;;;;4.28;77.50;98529.80;1814840;79;20924;-64
2021/04/22 21:06:22;;;;;;;6.72;5.90;;;;;;;4.25;77.62;98535.23;1814940;79;20900;-64
2021/04/22 21:08:49;;;;;;;10.20;6.80;;;;;;;4.22;77.68;98530.05;1814857;79;21336;-65
2021/04/22 21:11:20;;;;;;;6.67;6.08;;;;;;;4.21;77.75;98533.66;1814750;79;20983;-64
2021/04/22 21:13:48;;;;;;;8.23;7.42;;;;;;;4.21;78.02;98542.97;1814828;79;20995;-64
2021/04/22 21:16:16;;;;;;;8.53;6.92;;;;;;;4.16;78.22;98543.15;1814935;79;21035;-64
2021/04/22 21:18:45;;;;;;;7.80;6.97;;;;;;;4.17;78.48;98545.33;1814990;79;21333;-64
2021/04/22 21:21:12;;;;;;;10.35;6.78;;;;;;;4.14;78.67;98538.34;1814813;79;21316;-64
2021/04/22 21:23:40;;;;;;;8.53;7.37;;;;;;;4.14;78.77;98537.48;1814779;79;20991;-65
2021/04/22 21:26:08;;;;;;;9.73;7.78;;;;;;;4.13;78.87;98539.28;1814848;79;20996;-64
2021/04/22 21:28:36;;;;;;;8.78;6.67;;;;;;;4.10;79.02;98550.05;1814827;79;21003;-64
2021/04/22 21:31:04;;;;;;;7.58;6.78;;;;;;;4.08;79.23;98553.68;1814947;79;20920;-64
2021/04/22 21:33:32;;;;;;;7.92;6.47;;;;;;;4.07;79.25;98555.95;1814780;79;21363;-65
2021/04/22 21:36:00;;;;;;;7.50;6.42;;;;;;;4.07;79.12;98558.61;1814839;79;20968;-64
2021/04/22 21:38:27;;;;;;;7.70;6.05;;;;;;;4.06;78.94;98552.89;1814856;79;20964;-65
2021/04/22 21:40:57;;;;;;;12.18;7.28;;;;;;;4.06;78.90;98559.53;1814826;78;21007;-64
2021/04/22 21:43:26;;;;;;;11.12;7.53;;;;;;;4.05;78.91;98556.02;1814845;79;20877;-64
2021/04/22 21:45:53;;;;;;;9.60;7.15;;;;;;;4.05;78.91;98556.45;1814883;79;21223;-64
2021/04/22 21:48:21;;;;;;;7.58;6.28;;;;;;;4.04;78.85;98554.75;1814728;79;20889;-65
2021/04/22 21:50:48;;;;;;;8.50;5.72;;;;;;;4.05;78.82;98557.34;1814833;79;20972;-63
2021/04/22 21:53:16;;;;;;;7.12;6.25;;;;;;;4.05;78.73;98556.02;1814767;79;20868;-63
2021/04/22 21:55:44;;;;;;;9.45;5.78;;;;;;;4.06;78.71;98557.73;1814972;79;21294;-64
2021/04/22 21:58:12;;;;;;;6.78;5.60;;;;;;;4.07;78.67;98562.60;1814838;79;21371;-63
2021/04/22 22:00:39;;;;;;;6.60;5.85;;;;;;;4.08;78.59;98564.31;1814737;79;21077;-63
2021/04/22 22:03:06;;;;;;;8.58;6.55;;;;;;;4.09;78.47;98562.06;1814764;78;21354;-64
2021/04/22 22:05:34;;;;;;;7.55;6.78;;;;;;;4.09;78.31;98560.73;1814799;79;21460;-64
2021/04/22 22:08:02;;;;;;;8.25;6.65;;;;;;;4.09;78.30;98558.08;1814865;79;20869;-64
2021/04/22 22:10:31;;;;;;;7.67;6.90;;;;;;;4.09;78.23;98558.08;1814827;79;21361;-64
2021/04/22 22:12:59;;;;;;;7.62;5.90;;;;;;;4.11;78.06;98563.72;1814798;79;20936;-63
2021/04/22 22:15:26;;;;;;;7.35;5.67;;;;;;;4.13;78.07;98566.31;1814867;79;21007;-63
2021/04/22 22:17:55;;;;;;;6.33;5.45;;;;;;;4.11;78.06;98564.19;1814742;79;20905;-63
2021/04/22 22:20:22;;;;;;;9.15;6.60;;;;;;;4.13;78.15;98566.31;1814873;79;20916;-65
2021/04/22 22:22:51;;;;;;;5.87;5.35;;;;;;;4.14;78.00;98566.73;1814954;79;21338;-64
2021/04/22 22:25:20;;;;;;;6.05;5.45;;;;;;;4.14;77.81;98568.91;1814971;79;20979;-63
2021/04/22 22:27:51;;;;;;;6.75;4.97;;;;;;;4.16;77.67;98567.52;1814928;79;20964;-63
2021/04/22 22:30:28;;;;;;;6.30;5.10;;;;;;;4.17;77.54;98566.60;1815096;79;21353;-64
2021/04/22 22:32:56;;;;;;;5.92;5.33;;;;;;;4.17;77.37;98571.92;1815020;79;20868;-62
2021/04/22 22:35:27;;;;;;;8.45;6.12;;;;;;;4.17;77.31;98573.25;1815016;79;21181;-64
2021/04/22 22:37:55;;;;;;;10.68;5.83;;;;;;;4.17;77.44;98570.59;1815024;79;21341;-64
2021/04/22 22:40:23;;;;;;;6.42;5.67;;;;;;;4.15;77.43;98569.80;1815001;79;20897;-63
2021/04/22 22:42:54;;;;;;;6.33;5.15;;;;;;;4.14;77.42;98567.58;1814896;79;20916;-64
2021/04/22 22:45:22;;;;;;;5.55;4.42;;;;;;;4.15;77.38;98568.47;1815129;79;20904;-64
2021/04/22 22:47:50;;;;;;;6.08;5.33;;;;;;;4.14;77.28;98567.58;1814947;79;21346;-63
2021/04/22 22:50:20;;;;;;;7.90;5.67;;;;;;;4.13;77.20;98571.62;1814938;79;20992;-64
2021/04/22 22:52:48;;;;;;;8.80;5.15;;;;;;;4.11;77.04;98567.70;1814934;79;20964;-62
2021/04/22 22:55:17;;;;;;;6.72;5.22;;;;;;;4.11;77.02;98558.88;1814996;79;20909;-63